Portada
METAR-TAF:

METAR-TAF

Aeropuertos :

Hohn, Alemania

latitud: 54-19N, longitud: 009-32E, altitud: 12 m

Observación

El informe se hizo hace 1 hora y 4 minutos, a las 02:20 UTC
Viento 6 kt del noreste
Temperatura 9°C
Humedad 76%
Presión 1026 hPa
Visibilidad 10 km o más
Escasas nubes a una altura de 39000 ft

METAR: ETNH 010220Z 05006KT 9999 FEW390 09/05 Q1026 BLU+

Hora: 05:24 (03:24 UTC)

Pronóstico

El informe se hizo hace 5 horas y 24 minutos, a las 22:00 UTC
Pronóstico válido del 31 a las 23 UTC al 01 a las 11 UTC
Viento 5 kt del este-noreste
Visibilidad 10 km o más
Escasas nubes a una altura de 32000 ft

TAF: ETNH 312200Z 3123/0111 06005KT 9999 NSW FEW320 BY ETGL

Observaciones y pronósticos meteorológicos de más de 4000 aeropuertos (mensajes METAR y TAF).

Los puntos amarillos y rojos representan las estaciones disponibles.

Ponga el ratón en el punto deseado para ver el nombre de la estación.

Haga clic para ver las observaciones y los pronósticos meteorológicos.

Para cambiar el mapa : haga clic en los botones verdes con una cruz de color negro para hacer un zoom, en el botón verde con un guión para alejar o en las flechas verdes para mapas adyacentes.


METAR-TAF: